McClusky, North Dakota
Current Conditions -  °F | °C
As of 10:15 AM on Thursday 30 Oct 2014 (Local Time) from K5H4 Reporting Station
Overcast Overcast  
Wind Chill: 22°   Ceiling: 900
Heat Index: 32°   Visibility: 8mi
Dew Point: 32°   Wind: 15mph
Humidity: 100%   Direction: 350°N
Pressure: 30.32"   Gusts: NA
Location:  47.49°N, 100.44°W
Report Text: K5H4 301515Z AUTO 35013KT 8SM OVC009 00/00 A3032 RMK AO2
Loading
Personal Weather Stations






























Interactive Weather Map
Tropical Storm Tracking
New forecast layout! Learn more

10-Day Weather Forecast

Advertisements
Track Severe Weather on mobile